Time;durP1;ratioP1;P1;durP2;ratioP2;P2;SDS_P1;SDS_P2;PMS_P1;PMS_P2;Temp;Humidity;BMP_temperature;BMP_pressure;BME280_temperature;BME280_humidity;BME280_pressure;Samples;Min_cycle;Max_cycle;Signal;HPM_P1;HPM_P2
2023/08/05 00:02:30;;;;;;;0.93;0.93;;;;;;;14.19;93.97;101609.00;5054015;28;20358;-92
2023/08/05 00:04:55;;;;;;;1.30;1.23;;;;;;;14.18;93.89;101602.09;5054133;28;20025;-92
2023/08/05 00:07:21;;;;;;;1.07;1.00;;;;;;;14.22;93.90;101606.34;5053710;28;20107;-90
2023/08/05 00:09:46;;;;;;;1.30;1.20;;;;;;;14.24;94.01;101609.81;5053850;28;20110;-91
2023/08/05 00:12:11;;;;;;;1.10;1.10;;;;;;;14.27;93.73;101603.66;5053450;28;20021;-91
2023/08/05 00:14:37;;;;;;;1.40;1.30;;;;;;;14.25;93.28;101598.47;5054070;28;20033;-91
2023/08/05 00:17:02;;;;;;;1.30;1.30;;;;;;;14.36;93.77;101617.41;5054140;28;20477;-91
2023/08/05 00:19:30;;;;;;;1.33;1.23;;;;;;;14.30;94.00;101591.41;5053906;28;20033;-91
2023/08/05 00:22:04;;;;;;;1.30;1.20;;;;;;;14.27;93.97;101581.03;5054064;28;20025;-91
2023/08/05 00:24:39;;;;;;;1.38;1.27;;;;;;;14.33;94.29;101595.72;5053980;28;20037;-92
2023/08/05 00:27:05;;;;;;;1.35;1.33;;;;;;;14.37;94.13;101607.81;5053714;28;20392;-92
2023/08/05 00:29:31;;;;;;;1.13;1.03;;;;;;;14.36;94.36;101612.19;5053676;28;20025;-91
2023/08/05 00:31:56;;;;;;;1.40;1.30;;;;;;;14.32;94.21;101610.50;5053905;28;20036;-91
2023/08/05 00:34:21;;;;;;;1.10;1.10;;;;;;;14.28;94.51;101589.72;5053598;28;20513;-91
2023/08/05 00:36:59;;;;;;;1.37;1.30;;;;;;;14.31;94.48;101593.13;5053300;28;20068;-91
2023/08/05 00:39:24;;;;;;;1.35;1.25;;;;;;;14.39;94.74;101594.75;5053865;28;20044;-91
2023/08/05 00:41:49;;;;;;;1.27;1.17;;;;;;;14.39;94.89;101594.75;5053540;28;20025;-90
2023/08/05 00:44:15;;;;;;;1.23;1.23;;;;;;;14.32;94.75;101588.78;5053782;28;20051;-91
2023/08/05 00:46:40;;;;;;;1.00;1.00;;;;;;;14.34;94.97;101593.06;5058712;28;20033;-91
2023/08/05 00:49:06;;;;;;;1.30;1.20;;;;;;;14.34;94.82;101590.47;5058359;28;20021;-91
2023/08/05 00:51:43;;;;;;;1.30;1.20;;;;;;;14.31;94.81;101585.28;5053878;28;20036;-91
2023/08/05 00:54:09;;;;;;;1.85;1.20;;;;;;;14.25;94.65;101571.47;5053551;28;20033;-91
2023/08/05 00:56:35;;;;;;;1.37;1.27;;;;;;;14.24;94.96;101565.41;5053200;28;20484;-91
2023/08/05 00:59:01;;;;;;;1.88;1.40;;;;;;;14.32;95.01;101580.94;5053566;28;20380;-91
2023/08/05 01:01:38;;;;;;;1.23;1.23;;;;;;;14.23;95.07;101568.91;5052865;28;20112;-91
2023/08/05 01:04:04;;;;;;;1.50;1.40;;;;;;;14.21;94.96;101573.31;5053320;28;20029;-91
2023/08/05 01:06:30;;;;;;;1.10;1.10;;;;;;;14.25;94.99;101571.47;5053599;28;20075;-91
2023/08/05 01:08:57;;;;;;;1.17;1.17;;;;;;;14.10;95.18;101555.25;5053377;28;20029;-91
2023/08/05 01:11:22;;;;;;;1.63;1.52;;;;;;;14.10;94.99;101555.25;5051713;28;20024;-90
2023/08/05 01:13:48;;;;;;;1.50;1.40;;;;;;;14.14;94.99;101566.47;5033250;28;20017;-91
2023/08/05 01:16:13;;;;;;;1.53;1.43;;;;;;;14.01;95.34;101545.81;5033136;28;20065;-91
2023/08/05 01:18:40;;;;;;;1.73;1.63;;;;;;;14.10;95.27;101563.06;5033095;28;20112;-91
2023/08/05 01:21:30;;;;;;;1.60;1.50;;;;;;;14.08;95.83;101553.53;5033340;28;20029;-92
2023/08/05 01:24:35;;;;;;;1.63;1.52;;;;;;;14.11;95.73;101561.31;5037191;28;20026;-91
2023/08/05 01:27:10;;;;;;;1.40;1.40;;;;;;;13.98;95.77;101537.19;4995447;28;20077;-91
2023/08/05 01:29:35;;;;;;;1.98;1.42;;;;;;;14.01;95.90;101545.81;4995514;28;20041;-91
2023/08/05 01:32:02;;;;;;;2.07;1.50;;;;;;;14.04;95.81;101551.00;5017298;28;20398;-91
2023/08/05 01:34:28;;;;;;;1.45;1.40;;;;;;;14.04;96.06;101553.59;5036840;28;20033;-92
2023/08/05 01:36:53;;;;;;;1.43;1.33;;;;;;;14.04;96.05;101551.00;5050218;28;20041;-91
2023/08/05 01:39:19;;;;;;;1.50;1.40;;;;;;;14.05;96.29;101557.94;5056680;28;20319;-91
2023/08/05 01:41:44;;;;;;;1.50;1.40;;;;;;;13.92;96.57;101539.91;5056801;28;20373;-91
2023/08/05 01:44:18;;;;;;;1.40;1.30;;;;;;;13.96;96.37;101545.03;5056107;28;20358;-91
2023/08/05 01:46:43;;;;;;;1.48;1.38;;;;;;;14.05;96.37;101559.66;5067319;23;20055;-91
2023/08/05 01:49:09;;;;;;;1.70;1.60;;;;;;;14.04;96.56;101553.59;5076712;28;20025;-91
2023/08/05 01:51:34;;;;;;;1.50;1.40;;;;;;;14.03;96.63;101551.00;5076168;28;20025;-91
2023/08/05 01:53:59;;;;;;;1.40;1.30;;;;;;;14.03;96.55;101562.31;5081421;28;20024;-92
2023/08/05 01:56:25;;;;;;;1.50;1.40;;;;;;;14.03;96.65;101558.84;5076162;28;20028;-91
2023/08/05 01:59:04;;;;;;;1.53;1.43;;;;;;;13.92;96.43;101537.28;5075813;28;20021;-91
2023/08/05 02:01:43;;;;;;;1.23;1.20;;;;;;;13.94;96.61;101540.75;5076426;28;20074;-90
2023/08/05 02:04:21;;;;;;;1.30;1.20;;;;;;;13.95;97.10;101532.91;5076067;28;20095;-91
2023/08/05 02:06:46;;;;;;;1.30;1.30;;;;;;;13.94;97.14;101527.69;5076270;28;20028;-92
2023/08/05 02:09:11;;;;;;;1.87;1.33;;;;;;;14.04;97.25;101555.34;5076067;28;20021;-90
2023/08/05 02:11:37;;;;;;;1.40;1.30;;;;;;;14.05;97.21;101546.63;5075890;28;20480;-91
2023/08/05 02:14:02;;;;;;;1.37;1.27;;;;;;;14.05;97.65;101550.13;5075333;28;20028;-90
2023/08/05 02:16:42;;;;;;;1.10;1.10;;;;;;;14.02;97.55;101549.28;5075730;28;20020;-91
2023/08/05 02:19:08;;;;;;;1.10;1.10;;;;;;;14.01;97.81;101543.22;5075522;28;20025;-90
2023/08/05 02:21:33;;;;;;;1.03;1.03;;;;;;;14.07;97.63;101551.84;5076153;28;20024;-91
2023/08/05 02:23:58;;;;;;;1.50;1.40;;;;;;;14.09;97.91;101558.75;5075810;28;20021;-91
2023/08/05 02:26:24;;;;;;;1.53;1.43;;;;;;;14.01;97.82;101542.38;5075764;28;20063;-91
2023/08/05 02:29:11;;;;;;;1.33;1.23;;;;;;;14.07;97.82;101549.22;5076000;28;20028;-91
2023/08/05 02:31:36;;;;;;;1.75;1.50;;;;;;;14.07;97.61;101557.06;5075745;28;20025;-91
2023/08/05 02:34:02;;;;;;;1.63;1.53;;;;;;;13.95;97.72;101535.50;5074612;28;20096;-91
2023/08/05 02:36:27;;;;;;;1.93;1.83;;;;;;;13.93;97.55;101531.19;5075818;28;20094;-91
2023/08/05 02:38:53;;;;;;;1.63;1.53;;;;;;;13.93;97.74;101526.84;5076137;28;20183;-91
2023/08/05 02:41:34;;;;;;;1.63;1.53;;;;;;;13.83;97.63;101513.09;5075071;28;20080;-91
2023/08/05 02:44:00;;;;;;;1.50;1.40;;;;;;;13.91;97.65;101533.84;5075609;28;20104;-90
2023/08/05 02:46:25;;;;;;;1.50;1.40;;;;;;;13.87;97.88;101534.78;5074588;28;20083;-90
2023/08/05 02:48:50;;;;;;;1.70;1.60;;;;;;;13.83;97.92;101526.16;5074962;28;20032;-90
2023/08/05 02:51:23;;;;;;;1.70;1.60;;;;;;;13.73;97.86;101515.03;5075187;28;20054;-90
2023/08/05 02:53:48;;;;;;;1.67;1.58;;;;;;;13.78;98.06;101535.81;5086842;28;20012;-89
2023/08/05 02:56:14;;;;;;;1.77;1.67;;;;;;;13.74;97.82;101532.38;5086146;28;20066;-90
2023/08/05 02:58:39;;;;;;;2.03;1.87;;;;;;;13.73;98.16;101535.03;5074910;28;20024;-90
2023/08/05 03:01:08;;;;;;;1.98;1.83;;;;;;;13.58;98.30;101507.47;5074155;28;20049;-90
2023/08/05 03:03:34;;;;;;;1.48;1.38;;;;;;;13.64;98.05;101523.00;5075095;28;20540;-90
2023/08/05 03:05:59;;;;;;;1.70;1.60;;;;;;;13.57;98.07;101517.00;5074925;28;20032;-90
2023/08/05 03:08:25;;;;;;;1.67;1.57;;;;;;;13.62;98.17;101522.19;5074199;28;20457;-90
2023/08/05 03:10:58;;;;;;;1.90;1.80;;;;;;;13.61;98.30;101515.25;5084404;28;20111;-90
2023/08/05 03:13:23;;;;;;;1.70;1.60;;;;;;;13.57;98.31;101505.75;5094452;28;20034;-89
2023/08/05 03:15:49;;;;;;;1.80;1.70;;;;;;;13.54;98.27;101504.06;5094499;28;20028;-90
2023/08/05 03:18:28;;;;;;;1.93;1.80;;;;;;;13.42;98.36;101492.06;5094080;28;20108;-89
2023/08/05 03:20:57;;;;;;;2.05;1.90;;;;;;;13.51;98.58;101505.84;5094913;28;20452;-89
2023/08/05 03:23:22;;;;;;;1.90;1.80;;;;;;;13.40;98.51;101487.78;5094268;28;20032;-90
2023/08/05 03:25:48;;;;;;;1.87;1.77;;;;;;;13.35;98.53;101480.00;5095187;28;20027;-90
2023/08/05 03:28:13;;;;;;;1.90;1.70;;;;;;;13.34;98.53;101486.09;5094539;28;20448;-88
2023/08/05 03:30:38;;;;;;;1.57;1.47;;;;;;;13.28;98.97;101475.78;5094241;28;20028;-89
2023/08/05 03:33:04;;;;;;;1.43;1.33;;;;;;;13.32;98.68;101485.25;5094116;28;20583;-89
2023/08/05 03:35:43;;;;;;;1.80;1.70;;;;;;;13.33;98.72;101492.19;5094035;28;20405;-89
2023/08/05 03:38:08;;;;;;;3.17;2.15;;;;;;;13.33;98.80;101492.19;5093658;28;20020;-89
2023/08/05 03:40:34;;;;;;;1.80;1.70;;;;;;;13.29;98.85;101486.19;5094009;28;20188;-89
2023/08/05 03:42:59;;;;;;;2.57;1.90;;;;;;;13.30;98.99;101481.81;5094283;28;20060;-90
2023/08/05 03:45:24;;;;;;;2.20;1.90;;;;;;;13.28;98.94;101478.38;5093170;28;20023;-88
2023/08/05 03:47:51;;;;;;;2.17;2.00;;;;;;;13.22;98.90;101461.09;5094086;28;20040;-89
2023/08/05 03:50:29;;;;;;;2.42;1.80;;;;;;;13.19;99.11;101452.44;5093298;28;20032;-90
2023/08/05 03:52:55;;;;;;;2.17;2.00;;;;;;;13.11;98.89;101440.41;5097546;28;20132;-88
2023/08/05 03:55:21;;;;;;;1.90;1.80;;;;;;;13.15;99.27;101443.81;5108210;28;20105;-88
2023/08/05 03:57:47;;;;;;;2.33;2.00;;;;;;;13.21;99.18;101458.50;5094221;28;20075;-89
2023/08/05 04:00:12;;;;;;;2.10;1.90;;;;;;;13.20;99.32;101465.47;5094281;28;20024;-89
2023/08/05 04:02:38;;;;;;;2.37;2.10;;;;;;;13.19;99.12;101455.94;5094726;28;20107;-88
2023/08/05 04:05:04;;;;;;;2.23;2.03;;;;;;;13.09;99.08;101434.38;5093849;28;20020;-89
2023/08/05 04:07:30;;;;;;;2.20;2.00;;;;;;;13.16;99.43;101442.94;5080023;28;20082;-88
2023/08/05 04:09:56;;;;;;;2.30;2.10;;;;;;;13.16;99.24;101442.94;5074156;28;20032;-89
2023/08/05 04:12:21;;;;;;;2.00;1.80;;;;;;;13.15;99.64;101443.81;5073554;28;20453;-88
2023/08/05 04:14:58;;;;;;;2.20;2.00;;;;;;;13.17;99.38;101444.66;5074201;28;20027;-89
2023/08/05 04:17:24;;;;;;;1.77;1.67;;;;;;;13.17;99.56;101447.28;5073767;28;20025;-89
2023/08/05 04:19:50;;;;;;;2.73;2.10;;;;;;;13.17;99.70;101449.03;5073934;28;20111;-89
2023/08/05 04:22:19;;;;;;;2.10;1.90;;;;;;;13.11;99.72;101442.19;5078051;28;20025;-88
2023/08/05 04:24:51;;;;;;;2.10;1.90;;;;;;;13.11;99.64;101437.81;5072929;28;20040;-90
2023/08/05 04:27:17;;;;;;;1.65;1.55;;;;;;;13.15;100.00;101424.75;5073150;28;20040;-89
2023/08/05 04:29:42;;;;;;;1.60;1.50;;;;;;;13.11;100.00;101419.56;5074375;28;20039;-89
2023/08/05 04:32:08;;;;;;;1.60;1.50;;;;;;;13.11;100.00;101426.53;5074030;28;20029;-90
2023/08/05 04:34:44;;;;;;;1.87;1.77;;;;;;;13.16;100.00;101421.25;5073930;28;20025;-89
2023/08/05 04:37:16;;;;;;;;;;;;;;;13.16;100.00;101409.06;5074768;28;20380;-89
2023/08/05 04:39:43;;;;;;;1.80;1.70;;;;;;;13.17;100.00;101415.16;5073732;28;19959;-89
2023/08/05 04:42:08;;;;;;;2.00;1.75;;;;;;;13.18;100.00;101403.81;5073971;28;20384;-90
2023/08/05 04:44:46;;;;;;;2.90;1.90;;;;;;;13.12;100.00;101392.63;5073586;28;20036;-89
2023/08/05 04:47:11;;;;;;;1.95;1.85;;;;;;;13.13;100.00;101386.53;5070914;28;20123;-89
2023/08/05 04:49:40;;;;;;;1.73;1.63;;;;;;;13.23;100.00;101400.25;5074456;28;20512;-90
2023/08/05 04:52:07;;;;;;;1.70;1.60;;;;;;;13.15;100.00;101389.09;5073582;28;20433;-89
2023/08/05 04:54:44;;;;;;;1.80;1.70;;;;;;;13.11;100.00;101380.47;5073610;28;20028;-89
2023/08/05 04:57:11;;;;;;;1.70;1.60;;;;;;;13.15;100.00;101383.03;5075292;28;20020;-90
2023/08/05 04:59:36;;;;;;;2.00;1.80;;;;;;;13.17;100.00;101389.94;5078102;28;20031;-90
2023/08/05 05:02:02;;;;;;;1.80;1.70;;;;;;;13.22;100.00;101392.47;5077570;28;20025;-90
2023/08/05 05:04:27;;;;;;;1.70;1.60;;;;;;;13.21;100.00;101394.22;5077867;28;20029;-89
2023/08/05 05:07:04;;;;;;;1.80;1.70;;;;;;;13.27;100.00;101394.09;5086156;28;20099;-90
2023/08/05 05:09:29;;;;;;;1.73;1.63;;;;;;;13.23;100.00;101386.38;5097684;28;20085;-89
2023/08/05 05:11:55;;;;;;;1.90;1.80;;;;;;;13.22;100.00;101385.53;5097973;28;20016;-90
2023/08/05 05:14:21;;;;;;;1.80;1.70;;;;;;;13.35;100.00;101406.13;5097560;28;20032;-91
2023/08/05 05:16:58;;;;;;;1.63;1.53;;;;;;;13.32;100.00;101393.16;5098115;28;20020;-90
2023/08/05 05:19:24;;;;;;;1.77;1.67;;;;;;;13.19;100.00;101358.63;5097817;28;20016;-89
2023/08/05 05:21:49;;;;;;;1.77;1.67;;;;;;;13.29;100.00;101378.41;5097668;28;20027;-89
2023/08/05 05:24:15;;;;;;;1.50;1.40;;;;;;;13.26;100.00;101373.28;5097868;28;20012;-90
2023/08/05 05:26:40;;;;;;;1.87;1.77;;;;;;;13.29;100.00;101381.91;5097922;28;20020;-89
2023/08/05 05:29:22;;;;;;;1.43;1.33;;;;;;;13.33;100.00;101387.91;5100358;28;20012;-89
2023/08/05 05:31:47;;;;;;;1.77;1.67;;;;;;;13.32;100.00;101383.59;5097790;28;20112;-90
2023/08/05 05:34:12;;;;;;;1.73;1.60;;;;;;;13.36;100.00;101385.25;5097325;28;20048;-90
2023/08/05 05:36:38;;;;;;;1.97;1.80;;;;;;;13.32;100.00;101365.34;5097698;28;20073;-90
2023/08/05 05:39:15;;;;;;;2.10;1.90;;;;;;;13.41;100.00;101367.81;5097535;28;20031;-89
2023/08/05 05:41:41;;;;;;;1.67;1.40;;;;;;;13.42;100.00;101360.84;5096961;28;20052;-90
2023/08/05 05:44:06;;;;;;;1.83;1.73;;;;;;;13.58;100.00;101375.31;5096727;28;20050;-90
2023/08/05 05:46:32;;;;;;;1.53;1.40;;;;;;;13.66;100.00;101385.59;5097499;28;20035;-90
2023/08/05 05:48:58;;;;;;;1.60;1.50;;;;;;;13.70;100.00;101370.72;5095914;28;20040;-90
2023/08/05 05:51:35;;;;;;;1.27;1.27;;;;;;;13.78;100.00;101370.59;5095383;28;20055;-88
2023/08/05 05:54:00;;;;;;;1.70;1.60;;;;;;;13.85;100.00;101364.34;5094978;28;20030;-89
2023/08/05 05:56:25;;;;;;;1.67;1.50;;;;;;;14.01;100.00;101375.34;5093847;28;20028;-89
2023/08/05 05:58:51;;;;;;;1.73;1.50;;;;;;;13.98;100.00;101357.97;5095315;28;20052;-90
2023/08/05 06:01:16;;;;;;;2.00;1.80;;;;;;;14.13;100.00;101363.78;5095195;28;20020;-87
2023/08/05 06:03:54;;;;;;;1.83;1.73;;;;;;;14.25;100.00;101358.28;5094529;28;20020;-87
2023/08/05 06:06:19;;;;;;;1.90;1.80;;;;;;;14.40;100.00;101369.28;5094950;28;20032;-90
2023/08/05 06:08:44;;;;;;;5.03;3.10;;;;;;;14.37;100.00;101367.56;5094849;28;20028;-86
2023/08/05 06:11:10;;;;;;;4.67;3.30;;;;;;;14.38;100.00;101365.84;5093274;28;20047;-86
2023/08/05 06:13:36;;;;;;;3.60;2.90;;;;;;;14.44;100.00;101370.91;5094429;28;20107;-86
2023/08/05 06:16:02;;;;;;;3.40;2.80;;;;;;;14.51;100.00;101364.66;5094314;28;20031;-85
2023/08/05 06:18:27;;;;;;;2.60;2.40;;;;;;;14.61;100.00;101365.28;5093102;28;20020;-86
2023/08/05 06:20:52;;;;;;;2.67;2.40;;;;;;;14.67;100.00;101368.66;5094313;28;20020;-86
2023/08/05 06:23:18;;;;;;;3.40;2.40;;;;;;;14.76;100.00;101366.69;5094054;28;20410;-85
2023/08/05 06:25:45;;;;;;;2.53;2.20;;;;;;;14.90;100.00;101359.38;5077403;28;20016;-86
2023/08/05 06:28:11;;;;;;;3.28;2.40;;;;;;;15.00;100.00;101356.53;5073127;28;20526;-85
2023/08/05 06:30:42;;;;;;;2.40;2.20;;;;;;;15.14;100.00;101357.03;5073586;28;20103;-86
2023/08/05 06:33:07;;;;;;;2.20;2.00;;;;;;;15.29;100.00;101356.66;5073012;28;20036;-86
2023/08/05 06:35:34;;;;;;;4.50;2.40;;;;;;;15.41;100.00;101350.22;5073680;28;20033;-86
2023/08/05 06:37:59;;;;;;;2.33;2.10;;;;;;;15.53;100.00;101345.53;5090276;28;20035;-86
2023/08/05 06:40:25;;;;;;;2.10;2.00;;;;;;;15.72;100.00;101351.13;5091374;28;20106;-85
2023/08/05 06:42:50;;;;;;;1.70;1.60;;;;;;;15.90;100.00;101361.06;5092980;28;20411;-86
2023/08/05 06:45:16;;;;;;;2.50;2.30;;;;;;;16.04;100.00;101351.97;5093283;28;20028;-86
2023/08/05 06:47:41;;;;;;;3.38;2.63;;;;;;;16.23;100.00;101348.75;5050484;28;1227207;-86
2023/08/05 06:50:09;;;;;;;2.90;2.40;;;;;;;16.31;100.00;101352.88;5094639;28;20115;-86
2023/08/05 06:52:34;;;;;;;4.18;3.00;;;;;;;16.45;100.00;101360.28;5094831;28;20096;-85
2023/08/05 06:55:02;;;;;;;3.90;2.60;;;;;;;16.54;100.00;101339.97;5093743;28;20107;-85
2023/08/05 06:57:27;;;;;;;3.60;2.80;;;;;;;16.57;98.97;101343.34;5095107;28;20032;-87
2023/08/05 06:59:54;;;;;;;3.70;2.93;;;;;;;16.59;98.46;101345.88;5094880;28;20017;-87
2023/08/05 07:02:22;;;;;;;3.90;2.33;;;;;;;16.65;98.91;101343.09;5095170;28;20027;-90
2023/08/05 07:04:47;;;;;;;3.80;2.58;;;;;;;17.18;96.64;101333.47;5095803;28;20024;-92
2023/08/05 07:07:13;;;;;;;3.67;2.70;;;;;;;17.42;96.45;101327.34;5095339;28;20476;-86
2023/08/05 07:09:38;;;;;;;7.17;3.93;;;;;;;17.62;89.76;101336.25;5095402;28;20032;-90
2023/08/05 07:12:04;;;;;;;8.93;4.17;;;;;;;17.50;91.42;101328.81;5095795;28;20028;-89
2023/08/05 07:14:31;;;;;;;7.17;3.60;;;;;;;17.42;92.93;101318.59;5095240;28;20032;-90
2023/08/05 07:16:57;;;;;;;2.95;2.50;;;;;;;17.46;94.28;101317.59;5095214;28;20384;-89
2023/08/05 07:19:22;;;;;;;2.67;2.47;;;;;;;17.60;94.79;101324.94;5075458;28;20028;-89
2023/08/05 07:21:50;;;;;;;3.47;2.83;;;;;;;17.60;92.60;101323.19;5054716;28;20110;-92
2023/08/05 07:24:15;;;;;;;6.00;3.70;;;;;;;17.58;91.38;101322.41;5054963;28;20029;-89
2023/08/05 07:26:40;;;;;;;5.53;3.60;;;;;;;17.55;89.40;101324.28;5055135;28;20043;-89
2023/08/05 07:29:06;;;;;;;5.37;3.40;;;;;;;17.54;92.22;101317.31;5052933;28;20025;-89
2023/08/05 07:31:31;;;;;;;6.73;4.27;;;;;;;17.51;89.86;101327.91;5054732;28;20358;-88
2023/08/05 07:33:57;;;;;;;5.97;3.70;;;;;;;17.46;89.92;101325.47;5055146;28;20029;-87
2023/08/05 07:36:23;;;;;;;4.45;3.20;;;;;;;17.52;90.22;101329.63;5054443;28;20032;-87
2023/08/05 07:38:50;;;;;;;5.10;3.30;;;;;;;17.53;89.89;101323.47;5053757;28;20029;-86
2023/08/05 07:41:16;;;;;;;4.47;3.15;;;;;;;17.57;90.18;101325.06;5062236;28;20024;-86
2023/08/05 07:43:42;;;;;;;5.53;3.72;;;;;;;17.62;88.65;101325.75;5084218;28;20028;-86
2023/08/05 07:46:12;;;;;;;4.63;3.00;;;;;;;17.68;89.02;101315.00;5073374;28;20365;-86
2023/08/05 07:48:39;;;;;;;3.90;3.00;;;;;;;17.77;89.31;101318.22;5073841;28;20050;-86
2023/08/05 07:51:06;;;;;;;3.80;2.85;;;;;;;17.84;90.42;101310.06;5072577;28;20445;-86
2023/08/05 07:53:37;;;;;;;3.88;2.90;;;;;;;18.00;89.91;101307.72;5073384;28;20100;-86
2023/08/05 07:56:14;;;;;;;3.83;3.10;;;;;;;18.06;88.53;101302.22;5073580;28;20385;-86
2023/08/05 07:58:42;;;;;;;4.93;3.10;;;;;;;18.06;88.23;101293.50;5073242;28;20046;-87
2023/08/05 08:01:08;;;;;;;3.85;2.78;;;;;;;18.15;87.48;101290.50;5073224;28;20029;-88
2023/08/05 08:03:34;;;;;;;3.53;2.80;;;;;;;18.27;87.89;101281.25;5072639;28;20460;-86
2023/08/05 08:06:00;;;;;;;3.97;2.70;;;;;;;18.36;87.75;101280.88;5073961;28;20027;-87
2023/08/05 08:08:25;;;;;;;4.63;3.03;;;;;;;18.46;86.77;101270.84;5073451;28;20283;-86
2023/08/05 08:10:51;;;;;;;3.43;2.83;;;;;;;18.59;86.19;101263.28;5072838;28;20042;-87
2023/08/05 08:13:16;;;;;;;5.30;3.20;;;;;;;18.80;84.36;101276.47;5073636;28;20480;-87
2023/08/05 08:15:41;;;;;;;5.90;3.60;;;;;;;18.79;82.71;101280.84;5073664;28;20084;-88
2023/08/05 08:18:07;;;;;;;4.27;3.10;;;;;;;18.76;82.53;101273.09;5073135;28;20060;-87
2023/08/05 08:20:32;;;;;;;3.47;2.80;;;;;;;18.73;83.64;101261.84;5073823;28;20066;-88
2023/08/05 08:22:58;;;;;;;2.47;2.27;;;;;;;18.85;86.32;101258.69;5073526;28;20465;-87
2023/08/05 08:25:23;;;;;;;2.50;2.30;;;;;;;18.94;86.73;101253.06;5072406;28;20377;-87
2023/08/05 08:27:48;;;;;;;2.03;1.93;;;;;;;18.95;86.28;101246.88;5073178;28;20025;-86
2023/08/05 08:30:14;;;;;;;2.30;2.10;;;;;;;19.04;84.98;101243.00;5075854;28;20028;-89
2023/08/05 08:32:39;;;;;;;2.40;2.20;;;;;;;19.08;85.25;101246.34;5092988;28;20471;-89
2023/08/05 08:35:06;;;;;;;2.50;2.30;;;;;;;19.10;84.50;101245.34;5093854;28;20056;-90
2023/08/05 08:37:32;;;;;;;2.65;2.03;;;;;;;19.19;84.44;101251.13;5097071;28;20020;-88
2023/08/05 08:39:57;;;;;;;3.53;2.40;;;;;;;19.21;78.88;101247.50;5092901;28;20111;-88
2023/08/05 08:42:25;;;;;;;2.60;2.40;;;;;;;19.23;79.08;101245.66;5092288;28;20051;-87
2023/08/05 08:44:52;;;;;;;2.42;2.20;;;;;;;19.22;79.46;101219.41;5093071;28;20032;-87
2023/08/05 08:47:17;;;;;;;2.65;2.45;;;;;;;19.32;81.33;101230.38;5090984;28;20083;-84
2023/08/05 08:49:47;;;;;;;2.08;1.98;;;;;;;19.47;83.20;101229.66;5061198;28;20049;-83
2023/08/05 08:52:16;;;;;;;2.13;1.90;;;;;;;19.59;82.87;101220.31;5052750;28;20017;-84
2023/08/05 08:54:44;;;;;;;2.08;1.90;;;;;;;19.70;82.96;101222.47;5051440;28;20104;-82
2023/08/05 08:57:13;;;;;;;2.65;2.30;;;;;;;19.96;78.31;101217.72;5050787;28;20032;-82
2023/08/05 08:59:39;;;;;;;3.05;2.30;;;;;;;20.30;76.77;101210.78;5052788;28;20025;-87
2023/08/05 09:02:12;;;;;;;3.15;2.15;;;;;;;20.59;73.69;101204.03;5052739;28;20029;-91
2023/08/05 09:04:44;;;;;;;2.40;2.20;;;;;;;20.69;73.58;101207.03;5052628;28;20027;-84
2023/08/05 09:07:10;;;;;;;3.30;2.40;;;;;;;20.69;78.01;101196.50;5051853;28;20389;-86
2023/08/05 09:09:35;;;;;;;3.03;2.37;;;;;;;20.59;74.21;101200.56;5052936;28;20025;-86
2023/08/05 09:12:04;;;;;;;2.40;2.20;;;;;;;20.45;73.75;101207.38;5052954;28;20414;-82
2023/08/05 09:14:31;;;;;;;2.00;1.90;;;;;;;20.40;75.16;101190.94;5052048;28;20017;-86
2023/08/05 09:17:00;;;;;;;2.90;2.15;;;;;;;20.38;74.05;101187.50;5052572;28;20032;-86
2023/08/05 09:19:29;;;;;;;2.10;1.90;;;;;;;20.38;77.40;101171.69;5050863;28;20025;-87
2023/08/05 09:21:55;;;;;;;2.15;2.05;;;;;;;20.55;77.97;101172.63;5051895;28;20037;-86
2023/08/05 09:24:24;;;;;;;2.05;1.95;;;;;;;20.65;75.62;101174.72;5053366;28;20029;-89
2023/08/05 09:26:55;;;;;;;2.03;1.92;;;;;;;20.65;73.69;101173.84;5053230;28;20075;-89
2023/08/05 09:29:26;;;;;;;1.77;1.67;;;;;;;20.72;77.91;101158.56;5053096;28;20381;-89
2023/08/05 09:31:59;;;;;;;1.90;1.80;;;;;;;20.82;76.97;101160.66;5052715;28;20033;-89
2023/08/05 09:34:38;;;;;;;4.80;2.15;;;;;;;20.84;75.27;101155.28;5052938;28;20485;-90
2023/08/05 09:37:05;;;;;;;2.17;2.00;;;;;;;20.76;75.25;101145.16;5052876;28;20071;-87
2023/08/05 09:39:45;;;;;;;2.97;2.58;;;;;;;20.72;73.02;101133.03;5052803;28;20465;-86
2023/08/05 09:42:19;;;;;;;2.40;2.20;;;;;;;20.72;74.07;101138.28;5051932;28;20556;-85
2023/08/05 09:44:44;;;;;;;2.60;2.40;;;;;;;20.73;75.96;101134.72;5055887;28;20400;-83
2023/08/05 09:47:12;;;;;;;2.10;2.00;;;;;;;20.67;76.67;101138.53;5054836;28;20077;-84
2023/08/05 09:49:38;;;;;;;2.13;2.03;;;;;;;20.57;76.80;101133.84;5073755;28;20024;-84
2023/08/05 09:52:05;;;;;;;2.00;1.90;;;;;;;20.37;72.65;101138.41;5075532;28;20055;-84
2023/08/05 09:54:32;;;;;;;2.03;1.92;;;;;;;20.19;76.92;101125.22;5074460;28;20032;-83
2023/08/05 09:57:00;;;;;;;2.58;2.38;;;;;;;20.09;73.51;101123.16;5074376;28;20024;-85
2023/08/05 09:59:27;;;;;;;2.40;2.20;;;;;;;20.02;76.44;101117.34;5074973;28;20095;-83
2023/08/05 10:01:54;;;;;;;2.60;2.30;;;;;;;20.00;75.63;101116.56;5075849;28;20171;-87
2023/08/05 10:04:21;;;;;;;2.33;2.03;;;;;;;19.93;76.02;101115.19;5075273;28;20030;-87
2023/08/05 10:06:50;;;;;;;2.75;2.30;;;;;;;19.84;75.38;101112.03;5076007;28;20112;-90
2023/08/05 10:09:15;;;;;;;3.05;2.35;;;;;;;19.75;74.30;101113.34;5075739;28;20107;-86
2023/08/05 10:11:41;;;;;;;3.37;2.47;;;;;;;19.64;77.22;101099.88;5074202;28;20111;-84
2023/08/05 10:14:08;;;;;;;2.50;2.30;;;;;;;19.61;76.03;101105.28;5075207;28;20047;-85
2023/08/05 10:16:37;;;;;;;3.42;2.40;;;;;;;19.57;76.63;101101.09;5076843;28;20055;-92
2023/08/05 10:19:14;;;;;;;2.65;2.45;;;;;;;19.53;77.76;101092.50;5075361;28;20058;-85
2023/08/05 10:21:41;;;;;;;5.35;2.95;;;;;;;19.57;76.04;101099.31;5075360;28;20024;-90
2023/08/05 10:24:06;;;;;;;4.03;3.20;;;;;;;19.47;75.73;101089.31;5074471;28;20028;-84
2023/08/05 10:26:45;;;;;;;3.73;2.67;;;;;;;19.47;77.37;101082.28;5074324;28;20476;-84
2023/08/05 10:29:27;;;;;;;2.88;2.45;;;;;;;19.40;76.48;101086.97;5075429;28;20100;-87
2023/08/05 10:32:14;;;;;;;3.88;2.63;;;;;;;19.24;77.32;101084.25;5075881;28;20016;-91
2023/08/05 10:34:39;;;;;;;2.50;2.30;;;;;;;19.16;78.12;101094.25;5075978;28;20025;-88
2023/08/05 10:37:05;;;;;;;3.23;2.50;;;;;;;19.07;78.95;101084.16;5075191;28;20017;-85
2023/08/05 10:39:36;;;;;;;2.50;2.30;;;;;;;19.10;79.53;101089.31;5075507;28;20069;-84
2023/08/05 10:42:32;;;;;;;2.97;2.67;;;;;;;19.12;79.27;101082.19;5076550;28;20533;-89
2023/08/05 10:45:00;;;;;;;;;;;;;;;19.09;79.00;101084.97;5076742;28;20427;-90
2023/08/05 10:47:29;;;;;;;5.53;3.45;;;;;;;18.99;78.56;101081.91;5075930;28;19916;-89
2023/08/05 10:49:56;;;;;;;2.70;2.50;;;;;;;19.01;79.82;101082.69;5093749;28;20084;-89
2023/08/05 10:52:21;;;;;;;4.57;3.10;;;;;;;19.11;79.20;101081.31;5095425;28;20099;-90
2023/08/05 10:54:48;;;;;;;2.80;2.60;;;;;;;19.26;80.74;101077.09;5095643;28;20435;-90
2023/08/05 10:57:44;;;;;;;2.88;2.67;;;;;;;19.46;80.44;101070.03;5095789;28;20059;-87
2023/08/05 11:00:17;;;;;;;2.60;2.40;;;;;;;19.61;79.17;101076.31;5095691;28;20103;-89
2023/08/05 11:02:43;;;;;;;4.05;2.97;;;;;;;19.64;78.35;101070.91;5095741;28;20111;-89
2023/08/05 11:05:09;;;;;;;6.33;3.17;;;;;;;19.66;75.41;101060.28;5098503;28;20062;-90
2023/08/05 11:07:41;;;;;;;3.30;2.60;;;;;;;19.69;77.71;101049.63;5095374;28;20028;-89
2023/08/05 11:10:07;;;;;;;3.58;2.72;;;;;;;19.89;76.73;101059.16;5095863;28;20103;-89
2023/08/05 11:12:32;;;;;;;4.28;2.70;;;;;;;20.05;76.19;101065.34;5095802;28;20031;-89
2023/08/05 11:15:01;;;;;;;4.40;2.60;;;;;;;20.14;75.69;101056.13;5095859;28;20032;-90
2023/08/05 11:17:26;;;;;;;2.90;2.60;;;;;;;20.18;75.25;101051.53;5094959;28;20433;-89
2023/08/05 11:19:52;;;;;;;3.10;2.60;;;;;;;20.23;74.05;101054.75;5102345;28;20028;-89
2023/08/05 11:22:36;;;;;;;3.38;2.83;;;;;;;20.17;75.09;101044.56;5098396;28;20035;-91
2023/08/05 11:25:03;;;;;;;5.38;3.10;;;;;;;20.02;74.05;101038.31;5091868;28;20024;-93
2023/08/05 11:27:29;;;;;;;;;;;;;;;19.88;74.08;101037.25;5077261;28;20021;-91
2023/08/05 11:29:54;;;;;;;;;;;;;;;19.75;74.67;101022.97;5085710;28;19973;-90